Time;durP1;ratioP1;P1;durP2;ratioP2;P2;SDS_P1;SDS_P2;PMS_P1;PMS_P2;Temp;Humidity;BMP_temperature;BMP_pressure;BME280_temperature;BME280_humidity;BME280_pressure;Samples;Min_cycle;Max_cycle;Signal;HPM_P1;HPM_P2
2024/01/22 00:00:28;;;;;;;4.75;1.77;;;;;;;18.46;40.43;100867.66;4949291;28;20487;-70
2024/01/22 00:02:53;;;;;;;3.33;1.50;;;;;;;18.46;40.43;100851.81;4946735;29;20042;-70
2024/01/22 00:05:18;;;;;;;4.93;1.90;;;;;;;18.43;40.31;100836.22;4948983;29;20035;-69
2024/01/22 00:07:44;;;;;;;3.25;1.80;;;;;;;18.42;40.46;100835.41;4948834;29;20035;-70
2024/01/22 00:10:09;;;;;;;3.97;1.50;;;;;;;18.30;40.33;100802.09;4949204;29;20023;-70
2024/01/22 00:12:36;;;;;;;3.17;1.50;;;;;;;18.39;40.46;100792.59;4947451;28;20460;-70
2024/01/22 00:15:02;;;;;;;4.72;1.83;;;;;;;18.37;40.39;100800.63;4948300;28;20027;-70
2024/01/22 00:17:27;;;;;;;3.97;1.60;;;;;;;18.36;40.13;100801.59;4948882;28;20035;-70
2024/01/22 00:19:52;;;;;;;4.43;1.80;;;;;;;18.34;40.31;100802.69;4947357;29;20062;-70
2024/01/22 00:22:18;;;;;;;3.45;1.63;;;;;;;18.30;40.45;100802.09;4948018;28;20404;-70
2024/01/22 00:24:43;;;;;;;3.25;1.60;;;;;;;18.22;40.42;100815.94;4948176;28;20030;-69
2024/01/22 00:27:08;;;;;;;3.53;1.60;;;;;;;18.27;40.53;100797.09;4948583;29;20042;-70
2024/01/22 00:29:33;;;;;;;3.40;1.48;;;;;;;18.19;40.54;100781.88;4949129;29;20035;-69
2024/01/22 00:31:59;;;;;;;5.47;1.80;;;;;;;18.18;40.43;100785.47;4948946;29;20043;-70
2024/01/22 00:34:24;;;;;;;3.67;1.50;;;;;;;18.27;40.32;100779.44;4948752;29;20047;-70
2024/01/22 00:36:49;;;;;;;4.07;1.67;;;;;;;18.12;40.50;100749.91;4948510;29;20137;-71
2024/01/22 00:39:15;;;;;;;3.38;1.60;;;;;;;18.18;40.47;100748.56;4948787;29;20031;-71
2024/01/22 00:41:40;;;;;;;3.35;1.63;;;;;;;18.14;40.62;100749.78;4948770;29;20027;-71
2024/01/22 00:44:05;;;;;;;3.28;1.50;;;;;;;18.12;40.56;100731.44;4948652;29;20159;-70
2024/01/22 00:46:31;;;;;;;4.70;1.90;;;;;;;18.21;40.54;100750.94;4948818;29;20395;-70
2024/01/22 00:48:56;;;;;;;3.97;1.75;;;;;;;18.21;40.88;100745.66;4949023;28;20051;-70
2024/01/22 00:51:21;;;;;;;3.00;1.60;;;;;;;18.23;40.35;100725.28;4948277;29;20035;-70
2024/01/22 00:53:47;;;;;;;3.45;1.55;;;;;;;18.22;40.54;100722.78;4948093;29;20086;-70
2024/01/22 00:56:12;;;;;;;4.90;2.00;;;;;;;18.16;40.76;100710.94;4948578;29;20118;-69
2024/01/22 00:58:37;;;;;;;4.15;1.70;;;;;;;18.19;40.73;100739.69;4947849;29;20625;-70
2024/01/22 01:01:03;;;;;;;3.00;1.33;;;;;;;18.15;40.46;100711.91;4948554;28;20499;-70
2024/01/22 01:03:28;;;;;;;4.30;1.67;;;;;;;18.07;40.90;100727.50;4946715;28;20035;-70
2024/01/22 01:05:54;;;;;;;3.50;1.52;;;;;;;18.18;40.64;100721.34;4948078;29;20468;-70
2024/01/22 01:08:19;;;;;;;3.05;1.38;;;;;;;18.14;40.74;100733.97;4948262;29;20118;-70
2024/01/22 01:10:44;;;;;;;3.42;1.40;;;;;;;18.12;40.50;100701.63;4948577;29;20031;-70
2024/01/22 01:13:09;;;;;;;3.65;1.77;;;;;;;18.14;40.61;100739.25;4948366;29;20035;-70
2024/01/22 01:15:35;;;;;;;3.13;1.40;;;;;;;18.13;40.67;100725.22;4948700;29;20027;-70
2024/01/22 01:18:00;;;;;;;4.57;1.80;;;;;;;18.00;40.85;100697.34;4948545;29;20035;-70
2024/01/22 01:20:25;;;;;;;3.63;1.50;;;;;;;18.10;40.91;100700.88;4948349;29;20118;-70
2024/01/22 01:22:51;;;;;;;3.58;1.55;;;;;;;18.00;40.47;100692.06;4948029;29;20031;-69
2024/01/22 01:25:16;;;;;;;4.38;1.60;;;;;;;18.08;40.83;100702.81;4947659;29;20023;-70
2024/01/22 01:27:42;;;;;;;3.05;1.40;;;;;;;18.06;40.72;100686.28;4947961;28;20027;-69
2024/01/22 01:30:10;;;;;;;2.78;1.40;;;;;;;17.94;40.51;100675.81;4947716;29;20439;-70
2024/01/22 01:32:35;;;;;;;3.47;1.60;;;;;;;18.07;40.72;100699.34;4947198;28;20122;-70
2024/01/22 01:35:01;;;;;;;3.85;1.40;;;;;;;18.06;40.84;100683.66;4949306;28;20126;-71
2024/01/22 01:37:26;;;;;;;3.03;1.50;;;;;;;18.06;40.92;100657.28;4949562;29;20062;-70
2024/01/22 01:39:51;;;;;;;3.75;1.60;;;;;;;18.04;40.79;100646.00;4951047;29;21110;-69
2024/01/22 01:42:16;;;;;;;2.92;1.30;;;;;;;18.06;40.63;100658.13;4950785;29;20075;-69
2024/01/22 01:44:52;;;;;;;2.95;1.35;;;;;;;18.04;40.79;100652.13;4951721;29;20035;-70
2024/01/22 01:47:18;;;;;;;2.97;1.30;;;;;;;17.89;40.94;100650.78;4951926;28;20035;-69
2024/01/22 01:49:46;;;;;;;2.65;1.30;;;;;;;17.97;40.90;100655.41;4951729;28;20031;-70
2024/01/22 01:52:13;;;;;;;3.75;1.77;;;;;;;17.88;41.10;100618.31;4951444;28;20118;-70
2024/01/22 01:54:40;;;;;;;4.82;1.63;;;;;;;17.99;41.01;100635.88;4951856;28;20044;-69
2024/01/22 01:57:06;;;;;;;3.35;1.35;;;;;;;18.00;41.10;100634.91;4951415;28;20034;-70
2024/01/22 01:59:34;;;;;;;2.67;1.20;;;;;;;17.88;40.91;100620.94;4951592;28;20038;-70
2024/01/22 02:01:59;;;;;;;2.95;1.40;;;;;;;17.90;41.15;100645.38;4950057;28;20040;-70
2024/01/22 02:04:24;;;;;;;2.50;1.17;;;;;;;17.95;41.11;100616.81;4950428;29;20062;-70
2024/01/22 02:06:50;;;;;;;4.13;1.50;;;;;;;17.97;41.11;100621.13;4951161;29;20082;-70
2024/01/22 02:09:15;;;;;;;3.90;1.58;;;;;;;17.97;41.10;100635.16;4951226;28;20058;-70
2024/01/22 02:11:40;;;;;;;2.53;1.30;;;;;;;17.85;41.20;100620.31;4948434;29;20138;-70
2024/01/22 02:14:06;;;;;;;2.40;1.20;;;;;;;17.86;41.25;100603.53;4951209;29;20035;-70
2024/01/22 02:16:31;;;;;;;2.55;1.20;;;;;;;17.75;41.12;100570.16;4950739;29;20392;-70
2024/01/22 02:18:56;;;;;;;3.22;1.30;;;;;;;17.95;41.03;100614.19;4951405;29;20019;-70
2024/01/22 02:21:22;;;;;;;3.10;1.40;;;;;;;17.82;40.94;100588.97;4951672;29;20039;-71
2024/01/22 02:23:47;;;;;;;2.33;1.13;;;;;;;17.88;41.14;100586.69;4951043;29;20035;-70
2024/01/22 02:26:12;;;;;;;3.30;1.33;;;;;;;17.94;41.20;100594.06;4949635;29;20035;-70
2024/01/22 02:28:38;;;;;;;2.50;1.10;;;;;;;17.87;41.15;100578.88;4950971;29;20036;-70
2024/01/22 02:31:03;;;;;;;2.40;1.10;;;;;;;17.91;41.12;100581.16;4951101;29;20083;-70
2024/01/22 02:33:28;;;;;;;2.78;1.23;;;;;;;17.89;41.34;100561.13;4951021;28;20254;-71
2024/01/22 02:35:54;;;;;;;2.60;1.10;;;;;;;17.91;41.26;100578.50;4949396;29;20539;-70
2024/01/22 02:38:19;;;;;;;4.00;1.52;;;;;;;17.80;41.39;100533.75;4951017;29;20038;-71
2024/01/22 02:40:44;;;;;;;4.13;1.63;;;;;;;17.88;41.52;100526.03;4950954;29;20055;-70
2024/01/22 02:43:09;;;;;;;2.53;1.10;;;;;;;17.80;41.53;100527.63;4950941;29;20042;-70
2024/01/22 02:45:35;;;;;;;3.20;1.33;;;;;;;17.92;41.53;100530.06;4950105;28;20420;-69
2024/01/22 02:48:00;;;;;;;2.75;1.30;;;;;;;17.77;41.72;100499.72;4950926;29;20034;-70
2024/01/22 02:50:25;;;;;;;2.72;1.10;;;;;;;17.91;41.62;100511.75;4950692;29;20035;-70
2024/01/22 02:52:51;;;;;;;3.63;1.00;;;;;;;17.85;41.69;100507.81;4950772;29;20070;-69
2024/01/22 02:55:16;;;;;;;2.60;1.20;;;;;;;17.73;41.41;100485.97;4950545;29;20388;-70
2024/01/22 02:57:41;;;;;;;3.55;1.20;;;;;;;17.72;41.48;100483.44;4950830;28;20039;-70
2024/01/22 03:00:07;;;;;;;3.25;1.10;;;;;;;17.76;41.56;100488.34;4950661;29;20034;-70
2024/01/22 03:02:32;;;;;;;3.03;1.20;;;;;;;17.75;41.57;100465.59;4949016;28;20046;-71
2024/01/22 03:04:58;;;;;;;2.95;1.23;;;;;;;17.83;41.80;100474.63;4948756;29;20035;-69
2024/01/22 03:07:23;;;;;;;2.13;1.25;;;;;;;17.76;42.07;100461.16;4950743;29;20094;-70
2024/01/22 03:09:48;;;;;;;2.42;0.93;;;;;;;17.69;42.20;100455.59;4950576;29;20023;-69
2024/01/22 03:12:14;;;;;;;2.75;1.10;;;;;;;17.71;41.93;100455.44;4949845;29;20031;-70
2024/01/22 03:14:39;;;;;;;2.42;1.10;;;;;;;17.83;41.83;100474.63;4949308;29;20126;-70
2024/01/22 03:17:04;;;;;;;3.35;1.30;;;;;;;17.83;42.21;100470.22;4949902;29;20583;-69
2024/01/22 03:19:29;;;;;;;2.08;1.02;;;;;;;17.83;42.09;100449.13;4948775;29;20117;-70
2024/01/22 03:21:57;;;;;;;2.47;1.20;;;;;;;17.80;42.29;100451.16;4949334;29;20119;-71
2024/01/22 03:24:23;;;;;;;2.60;1.10;;;;;;;17.66;41.80;100434.75;4949095;29;20035;-70
2024/01/22 03:26:48;;;;;;;2.28;0.98;;;;;;;17.83;42.30;100449.13;4949314;28;20027;-70
2024/01/22 03:29:13;;;;;;;3.58;1.23;;;;;;;17.84;42.01;100455.22;4949486;29;20123;-69
2024/01/22 03:31:39;;;;;;;3.00;1.30;;;;;;;17.83;42.49;100454.41;4949967;29;20119;-71
2024/01/22 03:34:04;;;;;;;2.10;1.00;;;;;;;17.73;42.45;100438.53;4949873;29;20027;-70
2024/01/22 03:36:29;;;;;;;1.70;0.90;;;;;;;17.66;42.37;100426.84;4950072;28;20073;-71
2024/01/22 03:38:55;;;;;;;1.83;1.05;;;;;;;17.73;42.54;100440.31;4950290;29;20480;-70
2024/01/22 03:41:20;;;;;;;2.53;1.00;;;;;;;17.76;42.47;100442.69;4950133;29;20031;-71
2024/01/22 03:43:46;;;;;;;2.88;1.17;;;;;;;17.66;42.42;100424.22;4949985;28;20031;-70
2024/01/22 03:46:13;;;;;;;2.00;1.00;;;;;;;17.67;42.44;100423.22;4950072;29;20027;-70
2024/01/22 03:48:39;;;;;;;2.60;1.05;;;;;;;17.74;42.61;100424.38;4949582;28;20052;-70
2024/01/22 03:51:05;;;;;;;2.10;0.90;;;;;;;17.68;42.58;100424.91;4949120;28;20167;-70
2024/01/22 03:53:30;;;;;;;2.17;0.93;;;;;;;17.66;42.75;100402.31;4949753;28;20114;-70
2024/01/22 03:55:55;;;;;;;2.40;1.00;;;;;;;17.73;42.73;100414.78;4949596;28;20127;-71
2024/01/22 03:58:21;;;;;;;2.42;1.00;;;;;;;17.73;42.71;100412.16;4949268;28;20441;-71
2024/01/22 04:00:46;;;;;;;2.30;0.90;;;;;;;17.63;43.14;100394.66;4949766;29;20042;-71
2024/01/22 04:03:11;;;;;;;2.08;0.90;;;;;;;17.63;42.88;100398.13;4947207;29;20498;-71
2024/01/22 04:05:37;;;;;;;2.22;0.98;;;;;;;17.55;42.84;100379.50;4949328;29;20082;-70
2024/01/22 04:08:03;;;;;;;2.53;1.05;;;;;;;17.64;43.04;100415.63;4949570;29;20028;-70
2024/01/22 04:10:28;;;;;;;2.17;1.02;;;;;;;17.63;43.11;100389.41;4949511;28;20101;-70
2024/01/22 04:12:56;;;;;;;3.40;1.10;;;;;;;17.61;43.00;100376.34;4949145;29;20062;-70
2024/01/22 04:15:23;;;;;;;1.83;0.85;;;;;;;17.61;43.12;100392.16;4949637;28;20035;-69
2024/01/22 04:17:48;;;;;;;2.10;1.00;;;;;;;17.59;43.04;100394.94;4949260;29;20134;-70
2024/01/22 04:20:14;;;;;;;1.80;0.80;;;;;;;17.58;43.22;100387.97;4948288;28;20121;-70
2024/01/22 04:22:39;;;;;;;2.55;0.93;;;;;;;17.70;43.34;100406.34;4949091;29;20468;-70
2024/01/22 04:25:04;;;;;;;2.13;0.98;;;;;;;17.59;43.33;100379.13;4948678;29;20039;-71
2024/01/22 04:27:30;;;;;;;2.67;1.00;;;;;;;17.66;43.44;100389.13;4949304;29;20031;-70
2024/01/22 04:29:56;;;;;;;1.92;0.80;;;;;;;17.67;43.27;100402.16;4948935;29;20464;-70
2024/01/22 04:32:21;;;;;;;2.90;0.90;;;;;;;17.70;43.47;100414.25;4947614;29;20463;-71
2024/01/22 04:34:47;;;;;;;2.45;1.00;;;;;;;17.57;43.42;100370.50;4948838;28;20126;-71
2024/01/22 04:37:13;;;;;;;2.05;1.00;;;;;;;17.60;43.45;100379.94;4948755;29;20042;-70
2024/01/22 04:39:40;;;;;;;1.67;0.70;;;;;;;17.57;43.44;100377.56;4948933;29;20043;-69
2024/01/22 04:42:06;;;;;;;0.85;0.60;;;;;;;17.65;43.53;100396.19;4948497;28;20039;-71
2024/01/22 04:44:31;;;;;;;1.38;0.70;;;;;;;17.58;43.57;100369.53;4948708;28;20039;-71
2024/01/22 04:46:57;;;;;;;1.67;0.70;;;;;;;17.67;43.94;100393.41;4948815;28;20041;-72
2024/01/22 04:49:23;;;;;;;1.55;0.70;;;;;;;17.57;43.98;100381.03;4948928;28;20031;-69
2024/01/22 04:51:48;;;;;;;2.33;0.90;;;;;;;17.68;44.00;100398.56;4948419;28;20028;-71
2024/01/22 04:54:13;;;;;;;1.52;0.80;;;;;;;17.69;43.76;100389.69;4948604;29;20039;-71
2024/01/22 04:56:44;;;;;;;1.05;0.73;;;;;;;17.64;44.06;100391.91;4948683;29;20030;-71
2024/01/22 04:59:09;;;;;;;1.63;0.90;;;;;;;17.58;44.18;100382.72;4949055;28;20078;-70
2024/01/22 05:01:34;;;;;;;1.67;0.73;;;;;;;17.66;44.07;100373.31;4949041;29;20063;-70
2024/01/22 05:03:59;;;;;;;1.70;0.80;;;;;;;17.65;44.05;100380.38;4946436;29;20090;-70
2024/01/22 05:06:25;;;;;;;2.53;0.90;;;;;;;17.55;43.95;100361.06;4948783;29;20089;-70
2024/01/22 05:08:50;;;;;;;1.70;0.73;;;;;;;17.56;43.78;100381.16;4950673;28;20028;-70
2024/01/22 05:11:15;;;;;;;1.80;0.70;;;;;;;17.68;43.91;100392.47;4955634;29;20041;-70
2024/01/22 05:13:52;;;;;;;2.80;1.00;;;;;;;17.67;43.90;100386.34;4954028;29;20081;-71
2024/01/22 05:16:18;;;;;;;2.05;0.90;;;;;;;17.65;44.17;100392.72;4955548;28;20051;-70
2024/01/22 05:18:48;;;;;;;2.30;0.70;;;;;;;17.59;44.27;100370.34;4955050;28;20027;-71
2024/01/22 05:21:13;;;;;;;1.65;0.70;;;;;;;17.63;44.00;100392.03;4955239;28;20042;-71
2024/01/22 05:23:39;;;;;;;2.00;0.90;;;;;;;17.50;44.14;100361.47;4955056;29;20039;-71
2024/01/22 05:26:06;;;;;;;1.77;0.80;;;;;;;17.64;44.13;100378.72;4954961;28;20046;-71
2024/01/22 05:28:31;;;;;;;2.53;1.15;;;;;;;17.64;44.21;100388.41;4955144;28;20101;-71
2024/01/22 05:30:57;;;;;;;2.03;0.80;;;;;;;17.64;44.28;100380.50;4955610;28;20428;-69
2024/01/22 05:33:22;;;;;;;1.27;0.77;;;;;;;17.62;44.29;100385.91;4955170;29;20086;-69
2024/01/22 05:35:48;;;;;;;2.03;0.80;;;;;;;17.60;44.19;100382.56;4954856;28;20047;-70
2024/01/22 05:38:14;;;;;;;1.05;0.52;;;;;;;17.64;44.45;100398.94;4954732;28;20027;-69
2024/01/22 05:40:39;;;;;;;2.63;0.80;;;;;;;17.63;44.46;100397.31;4955248;29;20049;-70
2024/01/22 05:43:05;;;;;;;1.70;0.80;;;;;;;17.55;44.50;100393.50;4950923;28;20464;-70
2024/01/22 05:45:31;;;;;;;1.88;0.77;;;;;;;17.63;44.36;100395.50;4954176;29;20403;-70
2024/01/22 05:47:56;;;;;;;1.50;0.80;;;;;;;17.50;44.45;100374.63;4953465;28;20039;-71
2024/01/22 05:50:21;;;;;;;1.50;0.65;;;;;;;17.59;44.37;100387.03;4954757;29;20027;-71
2024/01/22 05:52:47;;;;;;;1.20;0.68;;;;;;;17.61;44.30;100396.56;4954560;29;20435;-70
2024/01/22 05:55:12;;;;;;;2.17;0.90;;;;;;;17.52;43.93;100385.03;4954792;29;20407;-70
2024/01/22 05:57:38;;;;;;;1.77;0.93;;;;;;;17.62;43.89;100406.16;4954183;29;20110;-70
2024/01/22 06:00:09;;;;;;;1.52;0.73;;;;;;;17.55;43.71;100375.06;4951789;28;20738;-69
2024/01/22 06:02:35;;;;;;;1.77;0.80;;;;;;;17.65;43.71;100393.53;4952360;28;20038;-70
2024/01/22 06:05:01;;;;;;;2.03;0.70;;;;;;;17.60;43.85;100377.31;4953338;28;20035;-72
2024/01/22 06:07:26;;;;;;;1.27;0.70;;;;;;;17.77;44.00;100408.31;4954581;28;20482;-70
2024/01/22 06:09:51;;;;;;;1.40;0.60;;;;;;;17.67;44.15;100391.59;4954067;29;20094;-70
2024/01/22 06:12:17;;;;;;;1.52;0.70;;;;;;;17.73;44.16;100396.34;4954198;29;20028;-70
2024/01/22 06:14:43;;;;;;;1.63;0.68;;;;;;;17.89;43.99;100439.88;4954181;28;20035;-70
2024/01/22 06:17:09;;;;;;;2.10;0.80;;;;;;;17.80;44.22;100425.66;4954166;29;20612;-70
2024/01/22 06:19:35;;;;;;;1.23;0.70;;;;;;;17.84;44.25;100397.22;4953965;28;20484;-70
2024/01/22 06:22:00;;;;;;;1.13;0.60;;;;;;;17.85;44.05;100390.97;4950459;28;20039;-69
2024/01/22 06:24:25;;;;;;;1.77;0.70;;;;;;;17.94;44.26;100396.34;4951232;29;20031;-69
2024/01/22 06:26:50;;;;;;;1.20;0.60;;;;;;;17.97;44.15;100402.31;4951033;29;20054;-69
2024/01/22 06:29:16;;;;;;;1.65;0.70;;;;;;;17.86;43.98;100379.47;4950665;29;20035;-69
2024/01/22 06:31:41;;;;;;;1.02;0.70;;;;;;;17.97;44.17;100408.41;4951244;29;20054;-69
2024/01/22 06:34:06;;;;;;;1.38;0.50;;;;;;;17.99;44.04;100406.47;4950794;29;20035;-69
2024/01/22 06:36:32;;;;;;;0.98;0.60;;;;;;;17.92;44.20;100387.72;4951388;29;20051;-69
2024/01/22 06:38:57;;;;;;;1.15;0.60;;;;;;;17.93;43.92;100370.94;4950724;29;20031;-71
2024/01/22 06:41:23;;;;;;;1.30;0.60;;;;;;;18.05;44.17;100398.00;4950966;29;20078;-69
2024/01/22 06:43:48;;;;;;;1.63;0.60;;;;;;;18.08;44.25;100389.00;4950200;29;20143;-69
2024/01/22 06:46:14;;;;;;;1.58;0.60;;;;;;;18.13;44.29;100418.44;4950880;29;20110;-70
2024/01/22 06:48:39;;;;;;;1.70;0.60;;;;;;;18.05;44.60;100407.72;4950661;29;20027;-69
2024/01/22 06:51:04;;;;;;;0.90;0.50;;;;;;;18.09;44.80;100428.44;4949319;29;20055;-69
2024/01/22 06:53:29;;;;;;;1.55;0.60;;;;;;;18.16;44.47;100427.88;4950532;29;20094;-69
2024/01/22 06:55:55;;;;;;;2.30;0.80;;;;;;;18.09;44.39;100427.59;4949432;29;20066;-69
2024/01/22 06:58:20;;;;;;;1.23;0.60;;;;;;;18.22;44.35;100443.19;4950104;29;20035;-70
2024/01/22 07:00:47;;;;;;;1.17;0.60;;;;;;;18.09;44.24;100425.78;4950140;29;20035;-70
2024/01/22 07:03:12;;;;;;;0.63;0.50;;;;;;;18.22;44.31;100449.28;4947959;29;20054;-71
2024/01/22 07:05:39;;;;;;;1.48;0.70;;;;;;;18.21;44.41;100452.88;4949870;29;20049;-71
2024/01/22 07:08:04;;;;;;;1.10;0.60;;;;;;;18.24;44.48;100436.78;4950114;29;20027;-71
2024/01/22 07:10:30;;;;;;;1.10;0.55;;;;;;;18.10;44.30;100402.88;4950059;28;20039;-70
2024/01/22 07:12:56;;;;;;;1.70;0.60;;;;;;;18.16;44.49;100414.72;4949176;29;20031;-70
2024/01/22 07:15:22;;;;;;;1.25;0.60;;;;;;;18.13;44.62;100397.34;4949321;29;20038;-70
2024/01/22 07:17:48;;;;;;;0.90;0.50;;;;;;;18.21;44.30;100431.78;4949037;29;20444;-71
2024/01/22 07:20:16;;;;;;;1.42;0.50;;;;;;;18.31;44.56;100435.28;4949391;28;20057;-69
2024/01/22 07:22:42;;;;;;;1.17;0.50;;;;;;;18.27;44.36;100430.41;4948934;29;20395;-70
2024/01/22 07:25:08;;;;;;;1.08;0.50;;;;;;;18.24;44.54;100412.22;4949909;28;20035;-70
2024/01/22 07:27:35;;;;;;;2.03;0.70;;;;;;;18.34;44.71;100420.16;4949516;28;20027;-70
2024/01/22 07:30:01;;;;;;;1.23;0.50;;;;;;;18.29;44.61;100424.03;4950124;29;20125;-70
2024/01/22 07:32:26;;;;;;;2.38;0.70;;;;;;;18.25;44.53;100424.44;4949495;28;20039;-70
2024/01/22 07:34:51;;;;;;;1.33;0.50;;;;;;;18.29;44.56;100428.47;4948580;29;20047;-71
2024/01/22 07:37:17;;;;;;;1.48;0.60;;;;;;;18.31;44.85;100431.81;4950518;29;20618;-77
2024/01/22 07:39:42;;;;;;;0.75;0.50;;;;;;;18.37;44.51;100436.53;4950735;29;20392;-79
2024/01/22 07:42:08;;;;;;;1.40;0.60;;;;;;;18.27;44.47;100422.50;4950796;29;20476;-76
2024/01/22 07:44:34;;;;;;;2.17;0.70;;;;;;;18.37;44.95;100435.72;4949909;29;20043;-76
2024/01/22 07:46:59;;;;;;;1.17;0.50;;;;;;;18.29;45.24;100423.19;4949465;28;20143;-77
2024/01/22 07:49:24;;;;;;;2.58;0.50;;;;;;;18.42;45.56;100426.44;4951031;29;20130;-77
2024/01/22 07:51:49;;;;;;;0.70;0.47;;;;;;;18.31;45.46;100431.81;4950202;29;20031;-79
2024/01/22 07:54:15;;;;;;;1.40;0.50;;;;;;;18.50;45.58;100444.22;4948684;29;20066;-76
2024/01/22 07:56:40;;;;;;;1.35;0.50;;;;;;;18.37;45.67;100420.69;4947262;29;20471;-77
2024/01/22 07:59:05;;;;;;;1.33;0.63;;;;;;;18.51;46.04;100435.31;4948803;29;20035;-78
2024/01/22 08:01:30;;;;;;;2.40;0.70;;;;;;;18.42;45.71;100410.59;4949360;29;20328;-76
2024/01/22 08:03:56;;;;;;;1.75;0.60;;;;;;;18.54;45.83;100434.22;4947717;29;20062;-80
2024/01/22 08:06:21;;;;;;;2.03;0.70;;;;;;;18.47;45.88;100411.00;4947995;29;20035;-75
2024/01/22 08:08:46;;;;;;;2.78;0.80;;;;;;;18.62;46.12;100439.63;4949253;29;20038;-76
2024/01/22 08:11:12;;;;;;;1.98;0.70;;;;;;;18.60;46.03;100436.31;4949372;29;20495;-74
2024/01/22 08:13:38;;;;;;;2.35;0.80;;;;;;;18.63;45.97;100430.75;4949445;29;20059;-78
2024/01/22 08:16:04;;;;;;;2.67;0.85;;;;;;;18.68;46.02;100455.75;4949370;29;20023;-77
2024/01/22 08:18:29;;;;;;;3.05;0.93;;;;;;;18.60;46.36;100431.03;4949112;29;20035;-78
2024/01/22 08:20:54;;;;;;;2.47;0.90;;;;;;;18.68;46.38;100439.91;4949249;29;20464;-76
2024/01/22 08:23:20;;;;;;;4.40;1.10;;;;;;;18.66;46.65;100452.41;4949287;29;20039;-77
2024/01/22 08:25:45;;;;;;;3.50;1.10;;;;;;;18.68;47.06;100453.09;4944257;29;20135;-77
2024/01/22 08:28:10;;;;;;;2.85;1.05;;;;;;;18.59;47.16;100443.38;4948654;29;20113;-77
2024/01/22 08:30:36;;;;;;;3.88;1.08;;;;;;;18.65;47.15;100456.03;4948772;29;20031;-78
2024/01/22 08:33:01;;;;;;;3.35;1.00;;;;;;;18.56;47.25;100424.34;4948141;29;20031;-78
2024/01/22 08:35:26;;;;;;;4.93;1.05;;;;;;;18.71;47.61;100465.22;4947570;29;20051;-77
2024/01/22 08:37:54;;;;;;;3.92;1.15;;;;;;;18.61;47.67;100453.78;4947731;29;20493;-77
2024/01/22 08:40:22;;;;;;;4.53;1.20;;;;;;;18.57;47.78;100469.06;4947307;29;20027;-77
2024/01/22 08:42:54;;;;;;;4.20;1.52;;;;;;;18.71;47.66;100488.97;4947736;28;20035;-76
2024/01/22 08:45:21;;;;;;;5.82;1.35;;;;;;;18.57;47.89;100463.78;4947683;28;20027;-75
2024/01/22 08:47:48;;;;;;;3.40;1.05;;;;;;;18.67;47.95;100475.22;4949042;28;20054;-76
2024/01/22 08:50:22;;;;;;;4.15;1.20;;;;;;;18.68;47.98;100502.44;4949689;28;20066;-77
2024/01/22 08:52:49;;;;;;;4.78;1.05;;;;;;;18.62;47.66;100500.34;4949097;29;20534;-77
2024/01/22 08:55:16;;;;;;;4.95;1.20;;;;;;;18.57;48.08;100490.19;4949127;28;20082;-78
2024/01/22 08:57:44;;;;;;;4.40;1.10;;;;;;;18.63;47.95;100510.75;4940128;28;20035;-75
2024/01/22 09:00:10;;;;;;;5.75;1.40;;;;;;;18.66;47.78;100496.47;4947115;29;20400;-79
2024/01/22 09:02:40;;;;;;;4.80;1.20;;;;;;;18.64;47.52;100501.88;4945936;29;20031;-79
2024/01/22 09:05:07;;;;;;;5.10;1.40;;;;;;;18.61;47.51;100496.03;4948276;28;20066;-80
2024/01/22 09:07:33;;;;;;;8.50;2.50;;;;;;;18.61;47.65;100488.97;4947687;28;20407;-72
2024/01/22 09:09:59;;;;;;;5.43;1.20;;;;;;;18.52;47.45;100478.34;4948024;28;20036;-81
2024/01/22 09:12:24;;;;;;;5.35;1.38;;;;;;;18.50;47.87;100462.69;4948262;29;20035;-74
2024/01/22 09:14:50;;;;;;;5.47;1.30;;;;;;;18.59;47.93;100469.75;4947640;28;20522;-75
2024/01/22 09:17:15;;;;;;;4.35;1.25;;;;;;;18.52;47.51;100465.16;4948609;29;20471;-74
2024/01/22 09:19:40;;;;;;;3.88;1.17;;;;;;;18.66;47.84;100491.19;4947543;29;20579;-76
2024/01/22 09:22:05;;;;;;;5.35;1.33;;;;;;;18.66;47.83;100478.81;4947631;29;20031;-76
2024/01/22 09:24:31;;;;;;;5.40;1.20;;;;;;;18.76;48.04;100478.81;4947854;29;20159;-71
2024/01/22 09:26:56;;;;;;;4.78;1.25;;;;;;;18.81;47.73;100475.78;4946353;29;20166;-73
2024/01/22 09:29:21;;;;;;;3.72;0.93;;;;;;;18.62;47.70;100439.63;4947134;29;20035;-77
2024/01/22 09:31:47;;;;;;;4.13;1.27;;;;;;;18.91;47.33;100475.81;4947610;29;20480;-75
2024/01/22 09:34:12;;;;;;;3.45;1.33;;;;;;;18.91;47.05;100476.63;4947593;28;20089;-76
2024/01/22 09:36:37;;;;;;;3.72;1.10;;;;;;;18.88;47.27;100484.00;4947764;28;20487;-76
2024/01/22 09:39:03;;;;;;;4.78;1.30;;;;;;;18.77;47.15;100477.00;4947695;29;20154;-77
2024/01/22 09:41:29;;;;;;;5.35;1.13;;;;;;;18.84;47.26;100496.66;4947837;29;20027;-75
2024/01/22 09:43:55;;;;;;;4.70;1.10;;;;;;;18.82;47.28;100495.94;4947322;28;20046;-69
2024/01/22 09:46:22;;;;;;;3.97;1.17;;;;;;;18.78;47.51;100491.88;4947683;28;20834;-75
2024/01/22 09:48:50;;;;;;;6.55;1.40;;;;;;;18.62;47.39;100472.13;4946826;29;20035;-73
2024/01/22 09:51:17;;;;;;;4.95;1.40;;;;;;;18.76;47.59;100510.50;4947327;28;20042;-73
2024/01/22 09:53:46;;;;;;;3.60;1.25;;;;;;;18.60;47.44;100491.72;4947437;28;20039;-72
2024/01/22 09:56:15;;;;;;;3.80;1.10;;;;;;;18.59;47.52;100490.06;4950386;28;20101;-74
2024/01/22 09:58:43;;;;;;;5.05;1.13;;;;;;;18.65;47.58;100513.25;4950967;28;20666;-73
2024/01/22 10:01:10;;;;;;;5.55;1.20;;;;;;;18.70;47.63;100529.53;4950068;28;20038;-72
2024/01/22 10:03:36;;;;;;;5.78;1.20;;;;;;;18.69;47.66;100525.19;4947662;28;20039;-70
2024/01/22 10:06:02;;;;;;;3.17;1.00;;;;;;;18.66;47.65;100525.50;4950016;28;20476;-73
2024/01/22 10:08:27;;;;;;;5.18;1.20;;;;;;;18.69;47.70;100538.41;4949703;29;20480;-73
2024/01/22 10:10:52;;;;;;;4.82;1.00;;;;;;;18.65;47.69;100535.22;4950995;29;20046;-72
2024/01/22 10:13:18;;;;;;;4.80;1.40;;;;;;;18.55;47.34;100513.25;4950753;29;20062;-73
2024/01/22 10:15:46;;;;;;;5.75;1.10;;;;;;;18.57;47.61;100524.50;4951230;29;20036;-71
2024/01/22 10:18:16;;;;;;;3.35;1.10;;;;;;;18.68;48.06;100549.94;4950878;29;20385;-74
2024/01/22 10:20:44;;;;;;;4.68;1.00;;;;;;;18.68;48.06;100557.88;4950738;29;20114;-73
2024/01/22 10:23:11;;;;;;;4.82;1.30;;;;;;;18.70;48.22;100597.31;4944025;29;20085;-72
2024/01/22 10:25:37;;;;;;;4.43;1.42;;;;;;;18.65;48.05;100629.41;4949587;28;20472;-72
2024/01/22 10:28:10;;;;;;;4.93;1.20;;;;;;;18.54;47.93;100611.03;4949448;28;20090;-73
2024/01/22 10:30:38;;;;;;;4.13;1.13;;;;;;;18.54;48.03;100624.22;4949879;28;20493;-73
2024/01/22 10:33:17;;;;;;;5.72;1.73;;;;;;;18.65;47.77;100640.78;4949975;28;20043;-73
2024/01/22 10:35:44;;;;;;;4.57;1.25;;;;;;;18.55;48.00;100616.16;4949042;29;20416;-73
2024/01/22 10:38:21;;;;;;;3.90;0.90;;;;;;;18.53;47.85;100623.38;4950458;28;20070;-73
2024/01/22 10:40:48;;;;;;;4.40;1.05;;;;;;;18.62;47.67;100629.66;4950256;28;20087;-73
2024/01/22 10:43:17;;;;;;;3.42;1.20;;;;;;;18.64;47.78;100639.13;4949580;28;20117;-72
2024/01/22 10:45:45;;;;;;;6.25;1.20;;;;;;;18.58;47.61;100629.09;4950210;28;20472;-72
2024/01/22 10:48:11;;;;;;;6.13;1.50;;;;;;;18.47;47.89;100603.63;4949793;28;20105;-73
2024/01/22 10:50:38;;;;;;;4.25;1.40;;;;;;;18.53;47.66;100623.38;4949496;28;20492;-73
2024/01/22 10:53:04;;;;;;;6.03;1.75;;;;;;;18.50;47.57;100626.31;4949511;28;20503;-73
2024/01/22 10:55:29;;;;;;;7.57;1.58;;;;;;;18.50;47.27;100621.03;4949914;28;20854;-71
2024/01/22 10:57:57;;;;;;;4.22;1.27;;;;;;;18.62;47.61;100637.59;4949228;29;20062;-72
2024/01/22 11:00:22;;;;;;;5.55;1.40;;;;;;;18.53;47.72;100622.53;4949426;28;20046;-71
2024/01/22 11:02:53;;;;;;;6.00;1.63;;;;;;;18.59;47.67;100633.41;4947871;29;20031;-72
2024/01/22 11:05:20;;;;;;;5.50;1.30;;;;;;;18.46;47.51;100615.16;4949944;28;20043;-71
2024/01/22 11:07:49;;;;;;;6.60;1.77;;;;;;;18.59;47.52;100632.56;4949450;28;20419;-71
2024/01/22 11:10:16;;;;;;;5.30;1.48;;;;;;;18.54;47.54;100634.78;4950642;29;20089;-72
2024/01/22 11:12:49;;;;;;;4.57;1.30;;;;;;;18.59;47.66;100643.13;4948437;29;20035;-70
2024/01/22 11:15:14;;;;;;;7.88;1.50;;;;;;;18.52;47.29;100650.75;4948156;28;20486;-70
2024/01/22 11:17:40;;;;;;;7.95;2.08;;;;;;;18.59;47.46;100657.16;4949246;28;20035;-72